OKBLK LGSK-LGKO
Flight info
| Callsign | OKBLK |
|---|---|
| Flight time | 1h 20m |
| Altitude | 15000 |
| Route | SKP DCT SKS DCT MES DCT SAM |
| Aircraft | BE58/L-S/C |
Departure
| Time | 2026-05-01 12:42 |
|---|---|
| Airport | Skiathos Island National Airport (LGSK) |
Arrival
| Time | 2026-05-01 14:02 |
|---|---|
| Airport | Kos International Airport "Ippokratis" (LGKO) |
| Time | Latitude | Longitude | Altitude | Speed | Heading |
|---|---|---|---|---|---|
| 2026-05-01 12:26 | 39.17684 | 23.50216 | 33 ft | 0 kts | 108° |
| 2026-05-01 12:27 | 39.17685 | 23.50216 | 33 ft | 0 kts | 108° |
| 2026-05-01 12:29 | 39.17685 | 23.50215 | 33 ft | 0 kts | 108° |
| 2026-05-01 12:33 | 39.17685 | 23.50214 | 33 ft | 0 kts | 108° |
| 2026-05-01 12:36 | 39.17685 | 23.50213 | 33 ft | 0 kts | 108° |
| 2026-05-01 12:37 | 39.17685 | 23.50214 | 33 ft | 0 kts | 108° |
| 2026-05-01 12:38 | 39.17678 | 23.50228 | 33 ft | 6 kts | 140° |
| 2026-05-01 12:39 | 39.17633 | 23.50225 | 33 ft | 8 kts | 198° |
| 2026-05-01 12:39 | 39.17596 | 23.50212 | 33 ft | 0 kts | 176° |
| 2026-05-01 12:40 | 39.17587 | 23.50215 | 33 ft | 7 kts | 156° |
| 2026-05-01 12:40 | 39.17556 | 23.50279 | 34 ft | 9 kts | 85° |
| 2026-05-01 12:40 | 39.17574 | 23.50306 | 35 ft | 0 kts | 18° |
| 2026-05-01 12:41 | 39.17710 | 23.50367 | 35 ft | 58 kts | 17° |
| 2026-05-01 12:41 | 39.18251 | 23.50594 | 220 ft | 91 kts | 21° |
| 2026-05-01 12:42 | 39.18822 | 23.50905 | 718 ft | 90 kts | 31° |
| 2026-05-01 12:42 | 39.19314 | 23.51429 | 1165 ft | 102 kts | 52° |
| 2026-05-01 12:42 | 39.19577 | 23.52291 | 1695 ft | 106 kts | 81° |
| 2026-05-01 12:42 | 39.19370 | 23.53236 | 2201 ft | 119 kts | 114° |
| 2026-05-01 12:43 | 39.18852 | 23.54085 | 2751 ft | 116 kts | 115° |
| 2026-05-01 12:43 | 39.18479 | 23.54978 | 3284 ft | 114 kts | 107° |
| 2026-05-01 12:43 | 39.18062 | 23.55888 | 3686 ft | 121 kts | 113° |
| 2026-05-01 12:43 | 39.17622 | 23.56788 | 4148 ft | 119 kts | 111° |
| 2026-05-01 12:44 | 39.17329 | 23.57784 | 4546 ft | 119 kts | 92° |
| 2026-05-01 12:44 | 39.17186 | 23.58858 | 4867 ft | 130 kts | 97° |
| 2026-05-01 12:44 | 39.16050 | 23.60880 | 5210 ft | 158 kts | 141° |
| 2026-05-01 12:45 | 39.13844 | 23.61865 | 5527 ft | 169 kts | 159° |
| 2026-05-01 12:45 | 39.12683 | 23.62300 | 5540 ft | 177 kts | 155° |
| 2026-05-01 12:45 | 39.11553 | 23.62875 | 5734 ft | 171 kts | 148° |
| 2026-05-01 12:46 | 39.10474 | 23.63502 | 5889 ft | 172 kts | 150° |
| 2026-05-01 12:46 | 39.09377 | 23.64161 | 5980 ft | 175 kts | 150° |
| 2026-05-01 12:46 | 39.08374 | 23.64999 | 6101 ft | 170 kts | 129° |
| 2026-05-01 12:46 | 39.07751 | 23.66257 | 6181 ft | 165 kts | 108° |
| 2026-05-01 12:47 | 39.07346 | 23.67608 | 6425 ft | 158 kts | 103° |
| 2026-05-01 12:47 | 39.06961 | 23.68947 | 6495 ft | 165 kts | 104° |
| 2026-05-01 12:47 | 39.06547 | 23.70322 | 6650 ft | 163 kts | 107° |
| 2026-05-01 12:47 | 39.06099 | 23.71672 | 6768 ft | 167 kts | 109° |
| 2026-05-01 12:48 | 39.05570 | 23.73027 | 6858 ft | 170 kts | 113° |
| 2026-05-01 12:48 | 39.05023 | 23.74362 | 7022 ft | 169 kts | 111° |
| 2026-05-01 12:48 | 39.04686 | 23.75272 | 7063 ft | 171 kts | 108° |
| 2026-05-01 12:48 | 39.04206 | 23.76684 | 7182 ft | 172 kts | 109° |
| 2026-05-01 12:49 | 39.03731 | 23.78097 | 7315 ft | 173 kts | 108° |
| 2026-05-01 12:49 | 39.03296 | 23.79547 | 7406 ft | 174 kts | 103° |
| 2026-05-01 12:49 | 39.02858 | 23.81009 | 7538 ft | 176 kts | 108° |
| 2026-05-01 12:49 | 39.02357 | 23.82454 | 7638 ft | 179 kts | 111° |
| 2026-05-01 12:50 | 39.01859 | 23.83924 | 7753 ft | 179 kts | 107° |
| 2026-05-01 12:50 | 39.01366 | 23.85407 | 7861 ft | 182 kts | 112° |
| 2026-05-01 12:50 | 39.00801 | 23.86873 | 7982 ft | 183 kts | 112° |
| 2026-05-01 12:50 | 39.00238 | 23.88347 | 8073 ft | 185 kts | 114° |
| 2026-05-01 12:51 | 38.99719 | 23.89859 | 8198 ft | 185 kts | 107° |
| 2026-05-01 12:51 | 38.99345 | 23.91421 | 8309 ft | 185 kts | 98° |
| 2026-05-01 12:51 | 38.99211 | 23.94686 | 8538 ft | 183 kts | 84° |
| 2026-05-01 12:52 | 38.99287 | 23.96317 | 8650 ft | 183 kts | 73° |
| 2026-05-01 12:52 | 38.99777 | 23.99529 | 8804 ft | 191 kts | 93° |
| 2026-05-01 12:52 | 38.99497 | 24.01227 | 8888 ft | 192 kts | 102° |
| 2026-05-01 12:53 | 38.98802 | 24.04511 | 9134 ft | 197 kts | 105° |
| 2026-05-01 12:53 | 38.98284 | 24.06132 | 9316 ft | 193 kts | 116° |
| 2026-05-01 12:53 | 38.97535 | 24.07575 | 9416 ft | 197 kts | 131° |
| 2026-05-01 12:54 | 38.96504 | 24.08735 | 9436 ft | 201 kts | 143° |
| 2026-05-01 12:54 | 38.94846 | 24.11534 | 9761 ft | 197 kts | 121° |
| 2026-05-01 12:54 | 38.94115 | 24.13050 | 9839 ft | 200 kts | 123° |
| 2026-05-01 12:55 | 38.92496 | 24.15939 | 10135 ft | 199 kts | 127° |
| 2026-05-01 12:55 | 38.91658 | 24.17338 | 10225 ft | 200 kts | 129° |
| 2026-05-01 12:55 | 38.90793 | 24.18736 | 10341 ft | 200 kts | 130° |
| 2026-05-01 12:56 | 38.89900 | 24.20111 | 10439 ft | 201 kts | 132° |
| 2026-05-01 12:56 | 38.89057 | 24.21555 | 10521 ft | 203 kts | 123° |
| 2026-05-01 12:56 | 38.88390 | 24.23150 | 10637 ft | 203 kts | 112° |
| 2026-05-01 12:56 | 38.87943 | 24.24862 | 10737 ft | 203 kts | 103° |
| 2026-05-01 12:57 | 38.87590 | 24.26612 | 10855 ft | 202 kts | 104° |
| 2026-05-01 12:57 | 38.86851 | 24.30125 | 11025 ft | 205 kts | 103° |
| 2026-05-01 12:57 | 38.86501 | 24.31901 | 11134 ft | 205 kts | 103° |
| 2026-05-01 12:58 | 38.86133 | 24.33672 | 11222 ft | 206 kts | 104° |
| 2026-05-01 12:58 | 38.85737 | 24.35450 | 11306 ft | 207 kts | 105° |
| 2026-05-01 12:58 | 38.85325 | 24.37213 | 11424 ft | 206 kts | 106° |
| 2026-05-01 12:59 | 38.84883 | 24.39113 | 11504 ft | 208 kts | 106° |
| 2026-05-01 12:59 | 38.84491 | 24.40900 | 11618 ft | 207 kts | 104° |
| 2026-05-01 12:59 | 38.83770 | 24.44429 | 11855 ft | 208 kts | 104° |
| 2026-05-01 13:00 | 38.83076 | 24.48030 | 12104 ft | 207 kts | 103° |
| 2026-05-01 13:00 | 38.82757 | 24.49855 | 12149 ft | 212 kts | 102° |
| 2026-05-01 13:01 | 38.82188 | 24.53547 | 12391 ft | 210 kts | 103° |
| 2026-05-01 13:01 | 38.81839 | 24.55383 | 12454 ft | 213 kts | 105° |
| 2026-05-01 13:01 | 38.80960 | 24.58986 | 12689 ft | 213 kts | 114° |
| 2026-05-01 13:02 | 38.80399 | 24.60760 | 12754 ft | 216 kts | 115° |
| 2026-05-01 13:07 | 38.69911 | 24.97919 | 15340 ft | 204 kts | 142° |
| 2026-05-01 13:07 | 38.68947 | 24.99200 | 15539 ft | 205 kts | 137° |
| 2026-05-01 13:07 | 38.67995 | 25.00617 | 15565 ft | 212 kts | 137° |
| 2026-05-01 13:08 | 38.67047 | 25.02023 | 15792 ft | 207 kts | 138° |
| 2026-05-01 13:08 | 38.66098 | 25.03417 | 15935 ft | 208 kts | 138° |
| 2026-05-01 13:08 | 38.65139 | 25.04827 | 16068 ft | 209 kts | 137° |
| 2026-05-01 13:08 | 38.64238 | 25.06230 | 16394 ft | 201 kts | 135° |
| 2026-05-01 13:09 | 38.63364 | 25.07666 | 16462 ft | 210 kts | 134° |
| 2026-05-01 13:09 | 38.62474 | 25.09165 | 16614 ft | 210 kts | 133° |
| 2026-05-01 13:09 | 38.61613 | 25.10647 | 16868 ft | 206 kts | 134° |
| 2026-05-01 13:09 | 38.60734 | 25.12122 | 16972 ft | 211 kts | 135° |
| 2026-05-01 13:10 | 38.59821 | 25.13594 | 17146 ft | 211 kts | 136° |
| 2026-05-01 13:10 | 38.58861 | 25.15073 | 17140 ft | 219 kts | 137° |
| 2026-05-01 13:10 | 38.57865 | 25.16567 | 17151 ft | 224 kts | 138° |
| 2026-05-01 13:10 | 38.56830 | 25.18078 | 17136 ft | 228 kts | 139° |
| 2026-05-01 13:11 | 38.55795 | 25.19636 | 17128 ft | 232 kts | 135° |
| 2026-05-01 13:11 | 38.54829 | 25.21315 | 17125 ft | 236 kts | 131° |
| 2026-05-01 13:11 | 38.53904 | 25.23021 | 17122 ft | 237 kts | 130° |
| 2026-05-01 13:11 | 38.53063 | 25.24855 | 17115 ft | 241 kts | 123° |
| 2026-05-01 13:12 | 38.52308 | 25.26768 | 17115 ft | 242 kts | 121° |
| 2026-05-01 13:12 | 38.51580 | 25.28714 | 17116 ft | 243 kts | 118° |
| 2026-05-01 13:12 | 38.50961 | 25.30739 | 17117 ft | 245 kts | 114° |
| 2026-05-01 13:12 | 38.50404 | 25.32780 | 17113 ft | 246 kts | 112° |
| 2026-05-01 13:13 | 38.49859 | 25.34848 | 17109 ft | 246 kts | 112° |
| 2026-05-01 13:13 | 38.49321 | 25.36927 | 17111 ft | 247 kts | 112° |
| 2026-05-01 13:13 | 38.48785 | 25.39004 | 17107 ft | 247 kts | 112° |
| 2026-05-01 13:13 | 38.48248 | 25.41088 | 17105 ft | 247 kts | 111° |
| 2026-05-01 13:14 | 38.47711 | 25.43164 | 17104 ft | 246 kts | 113° |
| 2026-05-01 13:14 | 38.47101 | 25.45206 | 17103 ft | 245 kts | 116° |
| 2026-05-01 13:14 | 38.46451 | 25.47216 | 17100 ft | 245 kts | 117° |
| 2026-05-01 13:14 | 38.45786 | 25.49222 | 17102 ft | 245 kts | 117° |
| 2026-05-01 13:15 | 38.45117 | 25.51221 | 17101 ft | 245 kts | 117° |
| 2026-05-01 13:15 | 38.44446 | 25.53220 | 17098 ft | 245 kts | 117° |
| 2026-05-01 13:15 | 38.43773 | 25.55220 | 17095 ft | 245 kts | 117° |
| 2026-05-01 13:15 | 38.43109 | 25.57194 | 17095 ft | 245 kts | 117° |
| 2026-05-01 13:16 | 38.42438 | 25.59190 | 17093 ft | 245 kts | 117° |
| 2026-05-01 13:16 | 38.41766 | 25.61189 | 17095 ft | 245 kts | 118° |
| 2026-05-01 13:16 | 38.41095 | 25.63185 | 17095 ft | 245 kts | 118° |
| 2026-05-01 13:17 | 38.39081 | 25.69181 | 17089 ft | 245 kts | 118° |
| 2026-05-01 13:17 | 38.38411 | 25.71182 | 17088 ft | 245 kts | 118° |
| 2026-05-01 13:18 | 38.37070 | 25.75185 | 17084 ft | 245 kts | 117° |
| 2026-05-01 13:18 | 38.36411 | 25.77153 | 17084 ft | 245 kts | 117° |
| 2026-05-01 13:18 | 38.35743 | 25.79147 | 17082 ft | 245 kts | 117° |
| 2026-05-01 13:18 | 38.35074 | 25.81141 | 17081 ft | 245 kts | 118° |
| 2026-05-01 13:19 | 38.34404 | 25.83144 | 17083 ft | 245 kts | 118° |
| 2026-05-01 13:19 | 38.33736 | 25.85139 | 17083 ft | 245 kts | 117° |
| 2026-05-01 13:19 | 38.32400 | 25.89137 | 17082 ft | 245 kts | 117° |
| 2026-05-01 13:20 | 38.31733 | 25.91131 | 17080 ft | 245 kts | 118° |
| 2026-05-01 13:20 | 38.31067 | 25.93126 | 17081 ft | 245 kts | 117° |
| 2026-05-01 13:20 | 38.30400 | 25.95120 | 17082 ft | 245 kts | 117° |
| 2026-05-01 13:21 | 38.29069 | 25.99097 | 17086 ft | 246 kts | 118° |
| 2026-05-01 13:21 | 38.28399 | 26.01099 | 17082 ft | 246 kts | 117° |
| 2026-05-01 13:21 | 38.27725 | 26.03108 | 17086 ft | 247 kts | 118° |
| 2026-05-01 13:21 | 38.27053 | 26.05113 | 17081 ft | 246 kts | 118° |
| 2026-05-01 13:22 | 38.26385 | 26.07121 | 17083 ft | 246 kts | 117° |
| 2026-05-01 13:22 | 38.25613 | 26.09039 | 17078 ft | 239 kts | 134° |
| 2026-05-01 13:22 | 38.24544 | 26.10633 | 17082 ft | 235 kts | 140° |
| 2026-05-01 13:22 | 38.23451 | 26.12192 | 17082 ft | 237 kts | 137° |
| 2026-05-01 13:23 | 38.22404 | 26.13825 | 17083 ft | 238 kts | 136° |
| 2026-05-01 13:23 | 38.21378 | 26.15478 | 17079 ft | 238 kts | 135° |
| 2026-05-01 13:23 | 38.20360 | 26.17139 | 17082 ft | 238 kts | 135° |
| 2026-05-01 13:23 | 38.19358 | 26.18784 | 17079 ft | 238 kts | 135° |
| 2026-05-01 13:24 | 38.18344 | 26.20452 | 17077 ft | 238 kts | 135° |
| 2026-05-01 13:24 | 38.17333 | 26.22118 | 17078 ft | 238 kts | 135° |
| 2026-05-01 13:24 | 38.16320 | 26.23789 | 17072 ft | 238 kts | 134° |
| 2026-05-01 13:25 | 38.14296 | 26.27125 | 17069 ft | 238 kts | 135° |
| 2026-05-01 13:25 | 38.13284 | 26.28792 | 17070 ft | 238 kts | 135° |
| 2026-05-01 13:25 | 38.12274 | 26.30456 | 17067 ft | 238 kts | 135° |
| 2026-05-01 13:25 | 38.11262 | 26.32123 | 17063 ft | 238 kts | 134° |
| 2026-05-01 13:26 | 38.10252 | 26.33786 | 17061 ft | 238 kts | 135° |
| 2026-05-01 13:26 | 38.09254 | 26.35432 | 17059 ft | 238 kts | 135° |
| 2026-05-01 13:26 | 38.08238 | 26.37099 | 17057 ft | 238 kts | 135° |
| 2026-05-01 13:26 | 38.07199 | 26.38726 | 17055 ft | 237 kts | 137° |
| 2026-05-01 13:27 | 38.06145 | 26.40336 | 17050 ft | 237 kts | 137° |
| 2026-05-01 13:27 | 38.05087 | 26.41939 | 17047 ft | 237 kts | 137° |
| 2026-05-01 13:27 | 38.02961 | 26.45138 | 17046 ft | 236 kts | 137° |
| 2026-05-01 13:28 | 38.00838 | 26.48324 | 17041 ft | 236 kts | 137° |
| 2026-05-01 13:28 | 37.99777 | 26.49915 | 17040 ft | 236 kts | 137° |
| 2026-05-01 13:29 | 37.97666 | 26.53082 | 17039 ft | 236 kts | 137° |
| 2026-05-01 13:29 | 37.95544 | 26.56270 | 17036 ft | 236 kts | 138° |
| 2026-05-01 13:30 | 37.91319 | 26.62621 | 17031 ft | 236 kts | 137° |
| 2026-05-01 13:31 | 37.89197 | 26.65813 | 17030 ft | 236 kts | 137° |
| 2026-05-01 13:31 | 37.86025 | 26.70590 | 17025 ft | 236 kts | 137° |
| 2026-05-01 13:32 | 37.83908 | 26.73777 | 17023 ft | 236 kts | 137° |
| 2026-05-01 13:33 | 37.80746 | 26.78530 | 17027 ft | 237 kts | 137° |
| 2026-05-01 13:33 | 37.78631 | 26.81690 | 16989 ft | 233 kts | 139° |
| 2026-05-01 13:34 | 37.76437 | 26.84674 | 17028 ft | 230 kts | 144° |
| 2026-05-01 13:34 | 37.74109 | 26.87467 | 17026 ft | 231 kts | 146° |
| 2026-05-01 13:35 | 37.71692 | 26.90146 | 17031 ft | 229 kts | 152° |
| 2026-05-01 13:35 | 37.70846 | 26.90937 | 17035 ft | 229 kts | 153° |
| 2026-05-01 13:35 | 37.68177 | 26.93050 | 17030 ft | 222 kts | 165° |
| 2026-05-01 13:36 | 37.66764 | 26.93815 | 17024 ft | 220 kts | 168° |
| 2026-05-01 13:36 | 37.65341 | 26.94531 | 17029 ft | 219 kts | 169° |
| 2026-05-01 13:36 | 37.62484 | 26.95918 | 16902 ft | 225 kts | 169° |
| 2026-05-01 13:37 | 37.60984 | 26.96618 | 16635 ft | 233 kts | 169° |
| 2026-05-01 13:37 | 37.59472 | 26.97310 | 16372 ft | 234 kts | 169° |
| 2026-05-01 13:37 | 37.57944 | 26.98003 | 16116 ft | 233 kts | 169° |
| 2026-05-01 13:37 | 37.56414 | 26.98691 | 15856 ft | 232 kts | 169° |
| 2026-05-01 13:38 | 37.53376 | 27.00042 | 15352 ft | 230 kts | 169° |
| 2026-05-01 13:38 | 37.51864 | 27.00708 | 15099 ft | 229 kts | 169° |
| 2026-05-01 13:38 | 37.50359 | 27.01368 | 14852 ft | 228 kts | 169° |
| 2026-05-01 13:39 | 37.48857 | 27.02024 | 14605 ft | 227 kts | 169° |
| 2026-05-01 13:39 | 37.47363 | 27.02672 | 14363 ft | 226 kts | 169° |
| 2026-05-01 13:39 | 37.45873 | 27.03315 | 14122 ft | 226 kts | 169° |
| 2026-05-01 13:39 | 37.44409 | 27.03941 | 13887 ft | 225 kts | 169° |
| 2026-05-01 13:40 | 37.42929 | 27.04570 | 13625 ft | 224 kts | 169° |
| 2026-05-01 13:40 | 37.41450 | 27.05185 | 13361 ft | 222 kts | 172° |
| 2026-05-01 13:40 | 37.39965 | 27.05650 | 13087 ft | 219 kts | 175° |
| 2026-05-01 13:40 | 37.38480 | 27.06041 | 12819 ft | 217 kts | 177° |
| 2026-05-01 13:41 | 37.37004 | 27.06400 | 12556 ft | 215 kts | 177° |
| 2026-05-01 13:41 | 37.35550 | 27.06739 | 12299 ft | 214 kts | 177° |
| 2026-05-01 13:41 | 37.34089 | 27.07072 | 12039 ft | 213 kts | 178° |
| 2026-05-01 13:41 | 37.32623 | 27.07400 | 11785 ft | 212 kts | 178° |
| 2026-05-01 13:42 | 37.31168 | 27.07718 | 11536 ft | 212 kts | 178° |
| 2026-05-01 13:42 | 37.29720 | 27.08029 | 11295 ft | 211 kts | 178° |
| 2026-05-01 13:42 | 37.28281 | 27.08333 | 11143 ft | 208 kts | 178° |
| 2026-05-01 13:42 | 37.26862 | 27.08632 | 10968 ft | 207 kts | 178° |
| 2026-05-01 13:43 | 37.25440 | 27.08926 | 10721 ft | 207 kts | 178° |
| 2026-05-01 13:43 | 37.24015 | 27.09214 | 10476 ft | 207 kts | 178° |
| 2026-05-01 13:43 | 37.22593 | 27.09497 | 10232 ft | 207 kts | 178° |
| 2026-05-01 13:43 | 37.21172 | 27.09776 | 9988 ft | 206 kts | 178° |
| 2026-05-01 13:44 | 37.19755 | 27.10049 | 9733 ft | 205 kts | 178° |
| 2026-05-01 13:44 | 37.18363 | 27.10312 | 9475 ft | 204 kts | 178° |
| 2026-05-01 13:44 | 37.16954 | 27.10573 | 9213 ft | 204 kts | 178° |
| 2026-05-01 13:44 | 37.15552 | 27.10830 | 8953 ft | 203 kts | 178° |
| 2026-05-01 13:45 | 37.14153 | 27.11082 | 8696 ft | 202 kts | 178° |
| 2026-05-01 13:45 | 37.12763 | 27.11329 | 8438 ft | 201 kts | 178° |
| 2026-05-01 13:45 | 37.11380 | 27.11567 | 8184 ft | 200 kts | 178° |
| 2026-05-01 13:45 | 37.10017 | 27.11797 | 7939 ft | 200 kts | 178° |
| 2026-05-01 13:46 | 37.08662 | 27.12030 | 7812 ft | 193 kts | 178° |
| 2026-05-01 13:46 | 37.07349 | 27.12193 | 7691 ft | 187 kts | 182° |
| 2026-05-01 13:46 | 37.06060 | 27.12264 | 7564 ft | 184 kts | 184° |
| 2026-05-01 13:46 | 37.04792 | 27.12302 | 7439 ft | 182 kts | 185° |
| 2026-05-01 13:47 | 37.03524 | 27.12325 | 7318 ft | 181 kts | 185° |
| 2026-05-01 13:47 | 37.02265 | 27.12339 | 7193 ft | 181 kts | 185° |
| 2026-05-01 13:47 | 37.01009 | 27.12352 | 7097 ft | 179 kts | 186° |
| 2026-05-01 13:47 | 36.99773 | 27.12367 | 7047 ft | 176 kts | 186° |
| 2026-05-01 13:48 | 36.98558 | 27.12388 | 7030 ft | 173 kts | 186° |
| 2026-05-01 13:48 | 36.97371 | 27.12363 | 7018 ft | 169 kts | 189° |
| 2026-05-01 13:48 | 36.96205 | 27.12297 | 7016 ft | 166 kts | 190° |
| 2026-05-01 13:48 | 36.95062 | 27.12220 | 7026 ft | 166 kts | 190° |
| 2026-05-01 13:49 | 36.93898 | 27.12137 | 6974 ft | 169 kts | 191° |
| 2026-05-01 13:49 | 36.92703 | 27.12047 | 6842 ft | 174 kts | 191° |
| 2026-05-01 13:49 | 36.91487 | 27.11951 | 6710 ft | 176 kts | 191° |
| 2026-05-01 13:49 | 36.90264 | 27.11853 | 6591 ft | 177 kts | 191° |
| 2026-05-01 13:50 | 36.89029 | 27.11752 | 6425 ft | 179 kts | 191° |
| 2026-05-01 13:50 | 36.87775 | 27.11646 | 6246 ft | 181 kts | 191° |
| 2026-05-01 13:50 | 36.86520 | 27.11489 | 6063 ft | 181 kts | 193° |
| 2026-05-01 13:50 | 36.85283 | 27.11293 | 5895 ft | 182 kts | 194° |
| 2026-05-01 13:51 | 36.84031 | 27.11078 | 5716 ft | 180 kts | 194° |
| 2026-05-01 13:51 | 36.82827 | 27.10874 | 5534 ft | 169 kts | 194° |
| 2026-05-01 13:51 | 36.81694 | 27.10686 | 5355 ft | 161 kts | 194° |
| 2026-05-01 13:51 | 36.80600 | 27.10508 | 5163 ft | 155 kts | 194° |
| 2026-05-01 13:52 | 36.79539 | 27.10334 | 4993 ft | 152 kts | 195° |
| 2026-05-01 13:52 | 36.78498 | 27.10169 | 4821 ft | 149 kts | 194° |
| 2026-05-01 13:52 | 36.77492 | 27.10006 | 4649 ft | 146 kts | 195° |
| 2026-05-01 13:52 | 36.76486 | 27.09842 | 4469 ft | 146 kts | 194° |
| 2026-05-01 13:53 | 36.75470 | 27.09914 | 4287 ft | 151 kts | 165° |
| 2026-05-01 13:53 | 36.73507 | 27.10827 | 3935 ft | 150 kts | 163° |
| 2026-05-01 13:53 | 36.72542 | 27.11297 | 3766 ft | 146 kts | 162° |
| 2026-05-01 13:54 | 36.71628 | 27.11747 | 3587 ft | 141 kts | 162° |
| 2026-05-01 13:54 | 36.70716 | 27.12147 | 3418 ft | 136 kts | 172° |
| 2026-05-01 13:54 | 36.69816 | 27.12383 | 3349 ft | 129 kts | 175° |
| 2026-05-01 13:54 | 36.68947 | 27.12579 | 3275 ft | 124 kts | 175° |
| 2026-05-01 13:55 | 36.68100 | 27.12750 | 3187 ft | 123 kts | 176° |
| 2026-05-01 13:55 | 36.67244 | 27.12930 | 3139 ft | 128 kts | 166° |
| 2026-05-01 13:55 | 36.66627 | 27.13682 | 3053 ft | 127 kts | 103° |
| 2026-05-01 13:55 | 36.66783 | 27.14654 | 2972 ft | 111 kts | 35° |
| 2026-05-01 13:56 | 36.67439 | 27.14938 | 2921 ft | 102 kts | 359° |
| 2026-05-01 13:56 | 36.68148 | 27.14971 | 2840 ft | 102 kts | 354° |
| 2026-05-01 13:56 | 36.68862 | 27.14950 | 2713 ft | 105 kts | 353° |
| 2026-05-01 13:56 | 36.69543 | 27.14903 | 2588 ft | 89 kts | 352° |
| 2026-05-01 13:57 | 36.70129 | 27.14836 | 2535 ft | 84 kts | 351° |
| 2026-05-01 13:57 | 36.70694 | 27.14721 | 2547 ft | 79 kts | 348° |
| 2026-05-01 13:57 | 36.71252 | 27.14579 | 2376 ft | 85 kts | 346° |
| 2026-05-01 13:57 | 36.71784 | 27.14363 | 2292 ft | 80 kts | 341° |
| 2026-05-01 13:58 | 36.72330 | 27.14158 | 2139 ft | 81 kts | 345° |
| 2026-05-01 13:58 | 36.72866 | 27.13975 | 1998 ft | 80 kts | 339° |
| 2026-05-01 13:58 | 36.73386 | 27.13661 | 1820 ft | 85 kts | 331° |
| 2026-05-01 13:58 | 36.73886 | 27.13316 | 1709 ft | 82 kts | 331° |
| 2026-05-01 13:59 | 36.74390 | 27.12979 | 1519 ft | 82 kts | 332° |
| 2026-05-01 13:59 | 36.74883 | 27.12619 | 1327 ft | 82 kts | 329° |
| 2026-05-01 13:59 | 36.75370 | 27.12259 | 1215 ft | 80 kts | 332° |
| 2026-05-01 13:59 | 36.75859 | 27.11910 | 1061 ft | 83 kts | 329° |
| 2026-05-01 14:00 | 36.76336 | 27.11526 | 950 ft | 81 kts | 329° |
| 2026-05-01 14:00 | 36.76819 | 27.11168 | 846 ft | 80 kts | 330° |
| 2026-05-01 14:00 | 36.77281 | 27.10790 | 725 ft | 80 kts | 326° |
| 2026-05-01 14:00 | 36.77739 | 27.10442 | 664 ft | 75 kts | 330° |
| 2026-05-01 14:01 | 36.78179 | 27.10094 | 569 ft | 77 kts | 330° |
| 2026-05-01 14:01 | 36.78648 | 27.09749 | 484 ft | 82 kts | 330° |
| 2026-05-01 14:01 | 36.79129 | 27.09373 | 436 ft | 79 kts | 329° |
| 2026-05-01 14:01 | 36.79533 | 27.09055 | 423 ft | 53 kts | 328° |
| 2026-05-01 14:02 | 36.79782 | 27.08864 | 421 ft | 26 kts | 327° |
| 2026-05-01 14:02 | 36.79851 | 27.08786 | 421 ft | 9 kts | 240° |
| 2026-05-01 14:02 | 36.79781 | 27.08753 | 418 ft | 11 kts | 191° |
| 2026-05-01 14:02 | 36.79769 | 27.08750 | 422 ft | 0 kts | 188° |
| 2026-05-01 14:03 | 36.79745 | 27.08749 | 422 ft | 6 kts | 172° |
| 2026-05-01 14:03 | 36.79697 | 27.08778 | 422 ft | 9 kts | 143° |
| 2026-05-01 14:03 | 36.79661 | 27.08795 | 422 ft | 7 kts | 204° |
| 2026-05-01 14:04 | 36.79633 | 27.08760 | 420 ft | 4 kts | 230° |
| 2026-05-01 14:04 | 36.79632 | 27.08741 | 423 ft | 3 kts | 346° |
| 2026-05-01 14:04 | 36.79642 | 27.08751 | 423 ft | 0 kts | 52° |
| 2026-05-01 14:05 | 36.79641 | 27.08751 | 422 ft | 0 kts | 52° |